createdAt,value
2023-04-27T00:03:03.315Z,100989.88
2023-04-27T00:06:04.086Z,100987.25
2023-04-27T00:09:04.973Z,100990.41
2023-04-27T00:12:15.060Z,100988.28
2023-04-27T00:15:15.953Z,100982.75
2023-04-27T00:18:17.003Z,100988.66
2023-04-27T00:21:17.955Z,101001.84
2023-04-27T00:24:19.000Z,100995.38
2023-04-27T00:27:19.968Z,100988.69
2023-04-27T00:30:21.045Z,101002.72
2023-04-27T00:33:21.956Z,101001.53
2023-04-27T00:36:23.011Z,101009.13
2023-04-27T00:39:23.937Z,101009.28
2023-04-27T00:42:26.051Z,101007.91
2023-04-27T00:45:26.984Z,101008.91
2023-04-27T00:48:28.024Z,101013.03
2023-04-27T00:51:28.956Z,101002.72
2023-04-27T00:54:32.004Z,101011.06
2023-04-27T00:57:32.929Z,101014.56
2023-04-27T01:00:33.963Z,101020.97
2023-04-27T01:03:36.177Z,101018.44
2023-04-27T01:06:36.969Z,101025.06
2023-04-27T01:09:37.963Z,101018.66
2023-04-27T01:12:39.091Z,101016.94
2023-04-27T01:15:39.951Z,101020.56
2023-04-27T01:18:41.977Z,101025.41
2023-04-27T01:21:42.948Z,101031.09
2023-04-27T01:24:43.970Z,101025.34
2023-04-27T01:27:44.920Z,101023.69
2023-04-27T01:30:45.968Z,101023.84
2023-04-27T01:33:46.909Z,101030.84
2023-04-27T01:36:47.969Z,101030.84
2023-04-27T01:39:48.965Z,101036.09
2023-04-27T01:42:49.997Z,101028.38
2023-04-27T01:45:50.936Z,101031.50
2023-04-27T01:48:51.997Z,101028.59
2023-04-27T01:51:52.970Z,101040.28
2023-04-27T01:54:54.006Z,101038.84
2023-04-27T01:57:54.967Z,101036.91
2023-04-27T02:00:56.059Z,101042.25
2023-04-27T02:03:57.066Z,101045.22
2023-04-27T02:06:58.007Z,101050.16
2023-04-27T02:09:58.951Z,101047.22
2023-04-27T02:13:00.099Z,101043.78
2023-04-27T02:16:03.176Z,101044.50
2023-04-27T02:19:03.983Z,101053.50
2023-04-27T02:22:04.973Z,101051.88
2023-04-27T02:25:06.001Z,101051.41
2023-04-27T02:28:08.540Z,101051.88
2023-04-27T02:31:09.991Z,101055.53
2023-04-27T02:34:10.951Z,101057.28
2023-04-27T02:37:11.979Z,101060.00
2023-04-27T02:40:16.966Z,101060.66
2023-04-27T02:43:17.993Z,101052.94
2023-04-27T02:46:18.995Z,101064.19
2023-04-27T02:49:21.023Z,101068.28
2023-04-27T02:52:21.926Z,101066.75
2023-04-27T02:55:22.976Z,101073.06
2023-04-27T02:58:23.964Z,101074.69
2023-04-27T03:01:25.058Z,101079.44
2023-04-27T03:04:26.097Z,101079.56
2023-04-27T03:07:26.990Z,101089.03
2023-04-27T03:10:27.910Z,101088.31
2023-04-27T03:13:29.042Z,101093.63
2023-04-27T03:16:30.036Z,101090.44
2023-04-27T03:19:30.977Z,101099.78
2023-04-27T03:22:31.922Z,101100.09
2023-04-27T03:25:33.003Z,101102.53
2023-04-27T03:28:34.902Z,101102.28
2023-04-27T03:31:36.013Z,101110.22
2023-04-27T03:34:36.907Z,101100.94
2023-04-27T03:37:37.973Z,101118.19
2023-04-27T03:40:38.948Z,101108.69
2023-04-27T03:43:39.951Z,101121.44
2023-04-27T03:46:40.909Z,101122.91
2023-04-27T03:49:41.946Z,101125.88
2023-04-27T03:52:42.929Z,101121.69
2023-04-27T03:55:43.965Z,101131.38
2023-04-27T03:58:44.949Z,101133.56
2023-04-27T04:01:48.019Z,101132.84
2023-04-27T04:04:48.990Z,101143.69
2023-04-27T04:07:49.958Z,101140.06
2023-04-27T04:10:51.948Z,101138.56
2023-04-27T04:13:53.119Z,101148.09
2023-04-27T04:16:53.933Z,101149.72
2023-04-27T04:19:54.963Z,101153.38
2023-04-27T04:22:55.934Z,101145.25
2023-04-27T04:25:56.987Z,101159.69
2023-04-27T04:29:01.938Z,101167.53
2023-04-27T04:32:02.962Z,101163.41
2023-04-27T04:35:04.919Z,101163.06
2023-04-27T04:38:05.954Z,101165.03
2023-04-27T04:41:06.902Z,101162.38
2023-04-27T04:44:07.972Z,101161.09
2023-04-27T04:47:08.933Z,101164.91
2023-04-27T04:50:11.008Z,101167.44
2023-04-27T04:53:11.919Z,101170.13
2023-04-27T04:56:22.036Z,101171.47
2023-04-27T04:59:22.954Z,101171.19
2023-04-27T05:02:25.179Z,101172.94
2023-04-27T05:05:25.944Z,101184.25
2023-04-27T05:08:26.973Z,101176.19
2023-04-27T05:11:28.937Z,101182.91
2023-04-27T05:14:30.134Z,101194.09
2023-04-27T05:17:30.919Z,101157.84
2023-04-27T05:20:31.960Z,101193.41
2023-04-27T05:23:32.911Z,101207.28
2023-04-27T05:26:33.945Z,101210.09
2023-04-27T05:29:34.904Z,101207.16
2023-04-27T05:32:35.964Z,101216.03
2023-04-27T05:35:36.935Z,101212.78
2023-04-27T05:38:37.950Z,101226.38
2023-04-27T05:41:38.889Z,101225.00
2023-04-27T05:44:39.971Z,101220.34
2023-04-27T05:47:41.013Z,101220.63
2023-04-27T05:50:41.969Z,101230.66
2023-04-27T05:53:42.937Z,101219.59
2023-04-27T05:56:43.958Z,101225.94
2023-04-27T05:59:44.912Z,101214.16
2023-04-27T06:02:46.028Z,101218.69
2023-04-27T06:05:46.917Z,101230.75
2023-04-27T06:08:47.945Z,101231.84
2023-04-27T06:11:48.895Z,101233.41
2023-04-27T06:14:50.134Z,101235.19
2023-04-27T06:17:50.961Z,101240.13
2023-04-27T06:20:51.948Z,101238.59
2023-04-27T06:23:52.889Z,101241.72
2023-04-27T06:26:53.948Z,101250.31
2023-04-27T06:29:54.929Z,101243.38
2023-04-27T06:32:55.975Z,101248.38
2023-04-27T06:35:56.902Z,101245.88
2023-04-27T06:38:57.918Z,101254.97
2023-04-27T06:41:58.908Z,101250.66
2023-04-27T06:44:59.939Z,101250.38
2023-04-27T06:48:01.059Z,101244.91
2023-04-27T06:51:01.934Z,101257.81
2023-04-27T06:54:03.908Z,101264.91
2023-04-27T06:57:04.943Z,101269.81
2023-04-27T07:00:05.909Z,101268.75
2023-04-27T07:03:07.094Z,101268.63
2023-04-27T07:06:07.884Z,101266.28
2023-04-27T07:09:20.179Z,101278.81
2023-04-27T07:12:27.914Z,101276.25
2023-04-27T07:15:29.105Z,101275.00
2023-04-27T07:18:29.904Z,101279.84
2023-04-27T07:21:30.998Z,101282.72
2023-04-27T07:24:31.878Z,101279.03
2023-04-27T07:27:32.958Z,101289.19
2023-04-27T07:30:36.940Z,101288.56
2023-04-27T07:33:37.937Z,101287.94
2023-04-27T07:36:38.898Z,101293.75
2023-04-27T07:39:39.926Z,101298.34
2023-04-27T07:42:40.899Z,101306.31
2023-04-27T07:45:44.988Z,101300.34
2023-04-27T07:48:45.922Z,101307.50
2023-04-27T07:51:46.911Z,101307.72
2023-04-27T07:54:47.893Z,101306.53
2023-04-27T07:57:48.918Z,101314.19
2023-04-27T08:00:49.893Z,101310.00
2023-04-27T08:03:51.096Z,101292.72
2023-04-27T08:06:53.213Z,101322.03
2023-04-27T08:09:54.928Z,101320.50
2023-04-27T08:12:55.890Z,101320.81
2023-04-27T08:15:57.160Z,101327.75
2023-04-27T08:18:59.886Z,101289.78
2023-04-27T08:22:00.960Z,101325.81
2023-04-27T08:25:01.923Z,101329.03
2023-04-27T08:28:02.911Z,101335.09
2023-04-27T08:31:03.937Z,101333.28
2023-04-27T08:34:05.919Z,101340.44
2023-04-27T08:37:06.891Z,101340.91
2023-04-27T08:40:07.944Z,101343.66
2023-04-27T08:43:12.877Z,101349.84
2023-04-27T08:46:13.983Z,101354.03
2023-04-27T08:49:16.846Z,101350.28
2023-04-27T08:52:18.915Z,101357.97
2023-04-27T08:55:19.880Z,101362.38
2023-04-27T08:58:20.928Z,101367.13
2023-04-27T09:01:21.934Z,101365.09
2023-04-27T09:04:23.149Z,101364.00
2023-04-27T09:07:31.860Z,101358.66
2023-04-27T09:10:32.959Z,101363.81
2023-04-27T09:13:33.882Z,101364.63
2023-04-27T09:16:38.134Z,101371.44
2023-04-27T09:19:38.872Z,101365.13
2023-04-27T09:22:39.923Z,101366.59
2023-04-27T09:25:41.881Z,101379.16
2023-04-27T09:28:42.927Z,101374.91
2023-04-27T09:31:49.946Z,101375.94
2023-04-27T09:34:53.912Z,101376.50
2023-04-27T09:37:54.893Z,101379.72
2023-04-27T09:40:55.915Z,101378.28
2023-04-27T09:43:57.991Z,101373.81
2023-04-27T09:46:59.924Z,101377.22
2023-04-27T09:50:00.879Z,101379.63
2023-04-27T09:53:01.915Z,101375.97
2023-04-27T09:56:02.896Z,101372.00
2023-04-27T09:59:03.942Z,101377.84
2023-04-27T10:02:24.033Z,101383.25
2023-04-27T10:05:26.019Z,101381.22
2023-04-27T10:08:26.906Z,101388.03
2023-04-27T10:11:27.911Z,101389.72
2023-04-27T10:14:35.880Z,101395.44
2023-04-27T10:17:39.037Z,101393.84
2023-04-27T10:20:42.852Z,101398.06
2023-04-27T10:23:43.944Z,101402.63
2023-04-27T10:26:44.892Z,101405.47
2023-04-27T10:29:49.926Z,101402.56
2023-04-27T10:32:50.911Z,101385.03
2023-04-27T10:35:55.998Z,101397.13
2023-04-27T10:38:56.880Z,101403.31
2023-04-27T10:42:07.932Z,101411.75
2023-04-27T10:45:10.880Z,101417.69
2023-04-27T10:48:12.966Z,101416.84
2023-04-27T10:51:14.875Z,101423.44
2023-04-27T10:54:15.927Z,101420.69
2023-04-27T10:57:17.863Z,101419.09
2023-04-27T11:00:20.924Z,101413.81
2023-04-27T11:03:28.903Z,101422.72
2023-04-27T11:06:29.888Z,101424.16
2023-04-27T11:09:39.904Z,101427.69
2023-04-27T11:12:40.925Z,101430.09
2023-04-27T11:15:42.092Z,101432.81
2023-04-27T11:18:46.001Z,101432.41
2023-04-27T11:21:46.875Z,101435.28
2023-04-27T11:24:47.969Z,101440.09
2023-04-27T11:27:51.853Z,101446.19
2023-04-27T11:30:52.926Z,101440.31
2023-04-27T11:34:00.875Z,101447.94
2023-04-27T11:37:18.840Z,101444.91
2023-04-27T11:40:22.005Z,101447.53
2023-04-27T11:43:27.897Z,101444.00
2023-04-27T11:46:28.894Z,101453.09
2023-04-27T11:49:29.904Z,101446.19
2023-04-27T11:52:30.875Z,101453.34
2023-04-27T11:55:33.915Z,101454.06
2023-04-27T11:58:34.883Z,101454.47
2023-04-27T12:01:38.157Z,101458.75
2023-04-27T12:04:38.938Z,101453.72
2023-04-27T12:07:39.918Z,101455.16
2023-04-27T12:10:40.877Z,101459.34
2023-04-27T12:13:41.899Z,101463.50
2023-04-27T12:16:42.927Z,101462.09
2023-04-27T12:19:43.952Z,101467.78
2023-04-27T12:22:44.876Z,101460.50
2023-04-27T12:25:47.918Z,101465.75
2023-04-27T12:28:48.873Z,101473.44
2023-04-27T12:31:49.920Z,101475.97
2023-04-27T12:34:50.853Z,101481.25
2023-04-27T12:37:52.000Z,101476.94
2023-04-27T12:40:52.854Z,101473.34
2023-04-27T12:43:54.884Z,101474.31
2023-04-27T12:46:55.856Z,101481.59
2023-04-27T12:49:57.885Z,101485.19
2023-04-27T12:52:58.861Z,101483.44
2023-04-27T12:55:59.881Z,101496.38
2023-04-27T12:59:00.870Z,101490.09
2023-04-27T13:02:02.014Z,101489.44
2023-04-27T13:05:02.977Z,101495.13
2023-04-27T13:08:03.879Z,101504.19
2023-04-27T13:11:04.885Z,101503.28
2023-04-27T13:14:05.888Z,101510.03
2023-04-27T13:17:06.849Z,101504.59
2023-04-27T13:20:07.976Z,101521.03
2023-04-27T13:23:08.844Z,101516.66
2023-04-27T13:26:09.921Z,101525.47
2023-04-27T13:29:10.851Z,101521.63
2023-04-27T13:32:11.906Z,101516.34
2023-04-27T13:35:12.828Z,101523.50
2023-04-27T13:38:13.895Z,101526.28
2023-04-27T13:41:14.868Z,101521.66
2023-04-27T13:44:16.164Z,101528.44
2023-04-27T13:47:16.827Z,101525.22
2023-04-27T13:50:20.916Z,101534.50
2023-04-27T13:53:22.817Z,101535.53
2023-04-27T13:56:23.892Z,101536.50
2023-04-27T13:59:24.819Z,101530.59
2023-04-27T14:02:25.916Z,101539.69
2023-04-27T14:05:26.830Z,101537.81
2023-04-27T14:08:27.858Z,101544.16
2023-04-27T14:11:29.855Z,101534.50
2023-04-27T14:14:30.883Z,101531.34
2023-04-27T14:17:31.915Z,101543.84
2023-04-27T14:20:35.130Z,101550.09
2023-04-27T14:23:35.851Z,101553.59
2023-04-27T14:26:36.883Z,101523.94
2023-04-27T14:29:37.842Z,101543.38
2023-04-27T14:32:39.012Z,101544.94
2023-04-27T14:35:39.870Z,101544.38
2023-04-27T14:38:40.860Z,101538.44
2023-04-27T14:41:42.821Z,101545.81
2023-04-27T14:44:43.870Z,101545.38
2023-04-27T14:47:44.900Z,101535.63
2023-04-27T14:50:45.890Z,101544.69
2023-04-27T14:53:46.844Z,101548.81
2023-04-27T14:56:47.874Z,101550.56
2023-04-27T14:59:48.845Z,101549.25
2023-04-27T15:02:51.003Z,101557.28
2023-04-27T15:05:51.814Z,101559.19
2023-04-27T15:08:52.898Z,101550.78
2023-04-27T15:11:53.847Z,101553.56
2023-04-27T15:14:56.897Z,101555.56
2023-04-27T15:17:57.862Z,101548.59
2023-04-27T15:21:03.096Z,101560.72
2023-04-27T15:24:03.826Z,101555.09
2023-04-27T15:27:04.877Z,101560.19
2023-04-27T15:30:10.837Z,101556.22
2023-04-27T15:33:11.909Z,101566.56
2023-04-27T15:36:12.836Z,101562.16
2023-04-27T15:39:14.145Z,101561.81
2023-04-27T15:42:14.834Z,101566.59
2023-04-27T15:45:15.870Z,101562.28
2023-04-27T15:48:16.845Z,101559.03
2023-04-27T15:51:17.876Z,101561.38
2023-04-27T15:54:18.851Z,101553.19
2023-04-27T15:57:19.877Z,101558.53
2023-04-27T16:00:22.907Z,101562.47
2023-04-27T16:03:23.933Z,101552.69
2023-04-27T16:06:24.819Z,101559.63
2023-04-27T16:09:25.905Z,101551.63
2023-04-27T16:12:26.796Z,101555.75
2023-04-27T16:15:27.861Z,101553.94
2023-04-27T16:18:28.817Z,101560.53
2023-04-27T16:21:30.070Z,101557.94
2023-04-27T16:24:30.812Z,101561.84
2023-04-27T16:27:31.849Z,101555.56
2023-04-27T16:30:32.824Z,101563.44
2023-04-27T16:33:33.867Z,101562.16
2023-04-27T16:36:34.821Z,101560.72
2023-04-27T16:39:35.874Z,101554.72
2023-04-27T16:42:36.797Z,101559.53
2023-04-27T16:45:37.865Z,101555.09
2023-04-27T16:48:38.812Z,101540.38
2023-04-27T16:51:39.858Z,101552.47
2023-04-27T16:54:40.819Z,101505.09
2023-04-27T16:57:41.848Z,101549.44
2023-04-27T17:00:42.868Z,101558.78
2023-04-27T17:03:44.051Z,101542.75
2023-04-27T17:06:44.803Z,101548.13
2023-04-27T17:09:45.868Z,101551.66
2023-04-27T17:12:46.847Z,101542.53
2023-04-27T17:15:47.908Z,101548.69
2023-04-27T17:18:49.820Z,101551.66
2023-04-27T17:21:51.047Z,101549.06
2023-04-27T17:24:51.814Z,101548.72
2023-04-27T17:27:52.847Z,101547.94
2023-04-27T17:30:53.859Z,101543.41
2023-04-27T17:33:54.867Z,101545.34
2023-04-27T17:36:55.783Z,101545.53
2023-04-27T17:40:00.919Z,101536.28
2023-04-27T17:43:02.818Z,101548.19
2023-04-27T17:46:03.905Z,101543.00
2023-04-27T17:49:04.838Z,101546.88
2023-04-27T17:52:05.853Z,101555.09
2023-04-27T17:55:06.793Z,101547.28
2023-04-27T17:58:09.839Z,101551.97
2023-04-27T18:01:10.815Z,101544.94
2023-04-27T18:04:13.022Z,101539.50
2023-04-27T18:07:13.795Z,101544.25
2023-04-27T18:10:14.868Z,101542.31
2023-04-27T18:13:15.797Z,101542.09
2023-04-27T18:16:16.879Z,101551.81
2023-04-27T18:19:17.799Z,101542.22
2023-04-27T18:22:18.893Z,101541.69
2023-04-27T18:25:19.816Z,101545.81
2023-04-27T18:28:20.853Z,101543.41
2023-04-27T18:31:30.831Z,101554.22
2023-04-27T18:34:31.838Z,101541.03
2023-04-27T18:37:32.836Z,101546.44
2023-04-27T18:40:34.884Z,101540.41
2023-04-27T18:43:35.825Z,101550.09
2023-04-27T18:46:36.824Z,101537.59
2023-04-27T18:49:37.826Z,101553.78
2023-04-27T18:52:38.849Z,101548.94
2023-04-27T18:55:39.803Z,101545.13
2023-04-27T18:58:40.853Z,101538.63
2023-04-27T19:01:42.837Z,101547.31
2023-04-27T19:04:52.812Z,101545.56
2023-04-27T19:07:57.785Z,101550.25
2023-04-27T19:11:00.261Z,101548.81
2023-04-27T19:14:00.823Z,101547.94
2023-04-27T19:17:02.068Z,101532.13
2023-04-27T19:20:02.846Z,101536.44
2023-04-27T19:23:03.910Z,101530.63
2023-04-27T19:29:08.836Z,101536.56
2023-04-27T19:32:09.797Z,101529.44
2023-04-27T19:35:11.701Z,101541.00
2023-04-27T19:38:12.796Z,101528.31
2023-04-27T19:41:13.847Z,101523.50
2023-04-27T19:44:15.036Z,101521.03
2023-04-27T19:47:17.826Z,101522.63
2023-04-27T19:50:18.857Z,101522.63
2023-04-27T19:53:19.839Z,101520.66
2023-04-27T19:56:20.805Z,101522.75
2023-04-27T19:59:21.810Z,101527.16
2023-04-27T20:02:22.909Z,101526.97
2023-04-27T20:05:24.101Z,101519.38
2023-04-27T20:08:24.783Z,101521.69
2023-04-27T20:11:25.841Z,101519.78
2023-04-27T20:14:26.771Z,101529.66
2023-04-27T20:17:27.865Z,101518.31
2023-04-27T20:20:28.771Z,101526.97
2023-04-27T20:23:29.964Z,101513.09
2023-04-27T20:26:30.772Z,101519.16
2023-04-27T20:29:31.829Z,101519.03
2023-04-27T20:32:32.798Z,101512.44
2023-04-27T20:35:33.824Z,101523.69
2023-04-27T20:38:34.780Z,101521.84
2023-04-27T20:41:35.842Z,101523.03
2023-04-27T20:44:36.804Z,101526.97
2023-04-27T20:47:37.900Z,101532.78
2023-04-27T20:50:38.789Z,101526.28
2023-04-27T20:53:39.853Z,101525.88
2023-04-27T20:56:40.766Z,101524.34
2023-04-27T20:59:41.857Z,101522.28
2023-04-27T21:02:42.879Z,101527.28
2023-04-27T21:05:43.824Z,101525.19
2023-04-27T21:08:44.793Z,101533.66
2023-04-27T21:11:45.818Z,101517.41
2023-04-27T21:14:46.803Z,101521.31
2023-04-27T21:17:47.900Z,101520.25
2023-04-27T21:20:48.777Z,101520.47
2023-04-27T21:23:57.163Z,101521.53
2023-04-27T21:27:04.765Z,101521.97
2023-04-27T21:30:05.839Z,101529.97
2023-04-27T21:33:06.807Z,101518.53
2023-04-27T21:36:07.813Z,101527.16
2023-04-27T21:39:08.784Z,101531.28
2023-04-27T21:42:09.869Z,101530.63
2023-04-27T21:45:10.857Z,101529.56
2023-04-27T21:48:11.818Z,101531.53
2023-04-27T21:51:12.757Z,101527.16
2023-04-27T21:54:14.114Z,101534.31
2023-04-27T21:57:14.758Z,101529.78
2023-04-27T22:00:19.830Z,101534.31
2023-04-27T22:03:20.868Z,101540.81
2023-04-27T22:06:21.833Z,101542.38
2023-04-27T22:09:22.765Z,101547.50
2023-04-27T22:12:23.821Z,101542.53
2023-04-27T22:15:26.762Z,101549.00
2023-04-27T22:18:27.842Z,101545.59
2023-04-27T22:21:28.774Z,101544.03
2023-04-27T22:24:30.025Z,101540.81
2023-04-27T22:27:41.875Z,101546.66
2023-04-27T22:30:44.840Z,101551.75
2023-04-27T22:33:45.792Z,101552.31
2023-04-27T22:36:46.804Z,101548.59
2023-04-27T22:39:47.783Z,101550.56
2023-04-27T22:42:48.800Z,101546.59
2023-04-27T22:45:49.797Z,101553.19
2023-04-27T22:48:51.833Z,101556.47
2023-04-27T22:51:53.813Z,101546.66
2023-04-27T22:54:54.823Z,101544.88
2023-04-27T22:57:56.758Z,101555.50
2023-04-27T23:00:57.820Z,101553.19
2023-04-27T23:03:58.927Z,101538.66
2023-04-27T23:06:59.830Z,101540.59
2023-04-27T23:10:01.784Z,101543.00
2023-04-27T23:13:03.810Z,101542.75
2023-04-27T23:16:04.761Z,101548.41
2023-04-27T23:19:05.816Z,101537.13
2023-04-27T23:22:06.752Z,101543.84
2023-04-27T23:25:07.896Z,101528.25
2023-04-27T23:28:08.794Z,101531.50
2023-04-27T23:31:09.886Z,101530.88
2023-04-27T23:34:10.750Z,101546.66
2023-04-27T23:37:11.839Z,101543.59
2023-04-27T23:40:12.757Z,101538.63
2023-04-27T23:43:13.826Z,101537.09
2023-04-27T23:46:14.853Z,101545.34
2023-04-27T23:49:15.827Z,101545.38
2023-04-27T23:52:16.756Z,101545.25
2023-04-27T23:55:17.811Z,101551.47
2023-04-27T23:58:18.768Z,101544.69
